Time;durP1;ratioP1;P1;durP2;ratioP2;P2;SDS_P1;SDS_P2;PMS_P1;PMS_P2;Temp;Humidity;BMP_temperature;BMP_pressure;BME280_temperature;BME280_humidity;BME280_pressure;Samples;Min_cycle;Max_cycle;Signal;HPM_P1;HPM_P2
2021/07/16 00:00:39;;;;;;;;;;;;;;;21.75;57.41;100106.38;4994958;28;19921;-71
2021/07/16 00:03:07;;;;;;;;;;;;;;;21.63;57.78;100110.69;4995152;28;19925;-73
2021/07/16 00:05:38;;;;;;;;;;;;;;;21.71;57.71;100102.81;4995821;28;20024;-71
2021/07/16 00:08:09;;;;;;;;;;;;;;;21.66;57.87;100100.50;4995488;28;19924;-72
2021/07/16 00:10:37;;;;;;;;;;;;;;;21.61;57.93;100093.31;4995677;28;19918;-71
2021/07/16 00:13:06;;;;;;;;;;;;;;;21.62;58.04;100097.75;4994822;28;19925;-71
2021/07/16 00:15:34;;;;;;;;;;;;;;;21.77;58.24;100094.59;4995538;28;19960;-73
2021/07/16 00:18:02;;;;;;;;;;;;;;;21.74;58.04;100090.63;4995073;28;19941;-72
2021/07/16 00:23:14;;;;;;;;;;;;;;;21.73;58.53;100089.00;4996749;28;19935;-72
2021/07/16 00:25:42;;;;;;;;;;;;;;;21.67;58.83;100085.09;4994869;28;19964;-70
2021/07/16 00:28:15;;;;;;;;;;;;;;;21.70;58.79;100084.22;4994777;28;19918;-70
2021/07/16 00:30:45;;;;;;;;;;;;;;;21.71;58.79;100083.00;4995192;28;20250;-71
2021/07/16 00:33:14;;;;;;;;;;;;;;;21.69;59.13;100076.97;4994649;28;19922;-71
2021/07/16 00:35:42;;;;;;;;;;;;;;;21.70;59.26;100067.25;4995127;28;20261;-72
2021/07/16 00:38:12;;;;;;;;;;;;;;;21.68;59.52;100064.06;4994501;28;19918;-72
2021/07/16 00:40:37;;;;;;;;;;;;;;;21.57;59.33;100064.34;4995032;28;19913;-72
2021/07/16 00:43:08;;;;;;;;;;;;;;;21.54;59.66;100064.41;4994352;28;19921;-71
2021/07/16 00:45:36;;;;;;;;;;;;;;;21.66;59.59;100077.84;4994511;28;19964;-72
2021/07/16 00:48:05;;;;;;;;;;;;;;;21.64;59.76;100069.03;4995018;28;19913;-71
2021/07/16 00:50:38;;;;;;;;;;;;;;;21.62;60.14;100069.44;4994111;28;19914;-71
2021/07/16 00:53:09;;;;;;;;;;;;;;;21.47;60.98;100064.59;4994890;28;20063;-71
2021/07/16 00:55:45;;;;;;;;;;;;;;;21.45;60.98;100068.63;4995180;28;19920;-71
2021/07/16 00:58:11;;;;;;;;;;;;;;;21.32;61.32;100070.56;4994226;28;19917;-72
2021/07/16 01:00:36;;;;;;;;;;;;;;;21.28;61.47;100058.50;4994099;28;19914;-73
2021/07/16 01:03:02;;;;;;;;;;;;;;;21.26;62.05;100054.53;4994086;28;20446;-73
2021/07/16 01:05:30;;;;;;;;;;;;;;;21.42;61.63;100055.38;4994064;28;19914;-71
2021/07/16 01:07:58;;;;;;;;;;;;;;;21.48;62.19;100057.69;4994628;28;19914;-72
2021/07/16 01:10:30;;;;;;;;;;;;;;;21.34;62.09;100056.75;4993736;28;19913;-71
2021/07/16 01:12:56;;;;;;;;;;;;;;;21.08;63.19;100054.91;4993435;28;20351;-72
2021/07/16 01:15:22;;;;;;;;;;;;;;;21.05;63.27;100050.16;4994499;28;20001;-71
2021/07/16 01:17:53;;;;;;;;;;;;;;;21.08;62.70;100054.91;4994137;28;20344;-72
2021/07/16 01:20:25;;;;;;;;;;;;;;;21.07;62.68;100056.94;4994156;28;20005;-72
2021/07/16 01:22:56;;;;;;;;;;;;;;;20.99;62.69;100051.91;4993987;28;19913;-71
2021/07/16 01:25:26;;;;;;;;;;;;;;;20.98;62.82;100047.44;4993682;28;20410;-72
2021/07/16 01:27:54;;;;;;;;;;;;;;;20.98;63.13;100039.75;4993709;28;19913;-71
2021/07/16 01:30:21;;;;;;;;;;;;;;;20.93;64.18;100038.28;4977789;28;19918;-73
2021/07/16 01:32:47;;;;;;;;;;;;;;;20.89;64.48;100043.19;4993589;28;20052;-71
2021/07/16 01:35:19;;;;;;;;;;;;;;;20.91;64.31;100043.53;4993584;28;19964;-71
2021/07/16 01:37:50;;;;;;;;;;;;;;;20.93;64.18;100045.94;4993684;28;19921;-71
2021/07/16 01:40:22;;;;;;;;;;;;;;;20.93;64.22;100041.09;4993530;28;19941;-71
2021/07/16 01:42:54;;;;;;;;;;;;;;;21.03;64.07;100036.41;4993384;28;19913;-72
2021/07/16 01:45:20;;;;;;;;;;;;;;;21.01;64.25;100049.41;4993490;28;19921;-72
2021/07/16 01:47:52;;;;;;;;;;;;;;;21.01;64.70;100049.41;4993707;28;19920;-70
2021/07/16 01:50:17;;;;;;;;;;;;;;;21.13;64.76;100046.69;4993406;28;19961;-72
2021/07/16 01:52:45;;;;;;;;;;;;;;;21.26;64.36;100044.00;4993739;28;19917;-72
2021/07/16 01:55:12;;;;;;;;;;;;;;;21.28;64.67;100052.03;4993106;28;19925;-72
2021/07/16 01:57:45;;;;;;;;;;;;;;;21.18;65.38;100051.84;4993953;28;19913;-72
2021/07/16 02:00:14;;;;;;;;;;;;;;;21.10;66.06;100052.47;4993303;28;19917;-72
2021/07/16 02:02:49;;;;;;;;;;;;;;;21.08;66.03;100050.03;4977279;28;20020;-71
2021/07/16 02:05:17;;;;;;;;;;;;;;;21.07;66.20;100039.97;4977661;28;19921;-71
2021/07/16 02:07:45;;;;;;;;;;;;;;;21.07;66.28;100042.00;4993506;28;19914;-73
2021/07/16 02:10:13;;;;;;;;;;;;;;;21.23;66.08;100044.88;4993184;28;19944;-72
2021/07/16 02:12:41;;;;;;;;;;;;;;;21.21;66.19;100040.91;4992836;28;19941;-72
2021/07/16 02:15:17;;;;;;;;;;;;;;;21.23;66.00;100027.09;4993516;28;19914;-71
2021/07/16 02:17:45;;;;;;;;;;;;;;;21.24;65.99;100023.81;4993493;28;19920;-72
2021/07/16 02:20:18;;;;;;;;;;;;;;;21.03;66.12;100013.78;4977450;28;19924;-71
2021/07/16 02:22:47;;;;;;;;;;;;;;;20.96;66.77;100030.94;4995201;28;19917;-72
2021/07/16 02:25:15;;;;;;;;;;;;;;;20.92;67.24;100031.00;4996957;28;20268;-72
2021/07/16 02:27:46;;;;;;;;;;;;;;;20.93;67.33;100014.81;4997057;28;19921;-72
2021/07/16 02:30:17;;;;;;;;;;;;;;;20.93;67.46;100014.81;4997035;28;19928;-72
2021/07/16 02:32:43;;;;;;;;;;;;;;;20.99;67.42;100020.78;4997202;28;20358;-70
2021/07/16 02:35:12;;;;;;;;;;;;;;;21.00;67.46;100019.53;4996956;28;19914;-71
2021/07/16 02:37:41;;;;;;;;;;;;;;;21.00;67.12;100011.84;4997432;28;20253;-71
2021/07/16 02:40:07;;;;;;;;;;;;;;;21.02;67.33;100017.06;4996832;28;19913;-70
2021/07/16 02:42:36;;;;;;;;;;;;;;;21.07;67.01;100030.69;4996741;28;19913;-72
2021/07/16 02:45:06;;;;;;;;;;;;;;;21.03;67.09;100021.47;4997627;28;20016;-72
2021/07/16 02:47:35;;;;;;;;;;;;;;;21.02;67.09;100028.38;4980723;28;19918;-73
2021/07/16 02:50:03;;;;;;;;;;;;;;;21.00;67.31;100030.84;4997139;28;19918;-72
2021/07/16 02:52:31;;;;;;;;;;;;;;;20.99;67.26;100026.44;4996574;28;19941;-71
2021/07/16 02:54:59;;;;;;;;;;;;;;;20.93;67.59;100021.31;4996888;28;19956;-72
2021/07/16 02:57:29;;;;;;;;;;;;;;;20.92;67.57;100018.88;4996827;28;19918;-71
2021/07/16 02:59:58;;;;;;;;;;;;;;;20.91;67.70;100020.94;4996473;28;19918;-73
2021/07/16 03:02:26;;;;;;;;;;;;;;;20.90;67.77;100019.34;4996118;28;19964;-71
2021/07/16 03:04:56;;;;;;;;;;;;;;;20.93;67.60;100026.97;4996402;28;19918;-72
2021/07/16 03:07:24;;;;;;;;;;;;;;;20.95;67.63;100022.88;4996349;28;19959;-72
2021/07/16 03:09:52;;;;;;;;;;;;;;;20.99;67.54;100018.75;4996888;28;19936;-71
2021/07/16 03:12:18;;;;;;;;;;;;;;;21.05;67.30;100027.50;4996301;28;19917;-72
2021/07/16 03:14:45;;;;;;;;;;;;;;;20.98;67.62;100022.78;4996768;28;20336;-71
2021/07/16 03:17:11;;;;;;;;;;;;;;;20.97;67.52;100026.06;4996096;28;19914;-72
2021/07/16 03:19:39;;;;;;;;;;;;;;;21.05;67.80;100027.50;4995941;28;19914;-72
2021/07/16 03:22:04;;;;;;;;;;;;;;;21.14;66.94;100019.22;4996038;28;20004;-71
2021/07/16 03:24:32;;;;;;;;;;;;;;;21.06;67.30;100018.59;4995946;28;19914;-71
2021/07/16 03:27:00;;;;;;;;;;;;;;;21.03;67.43;100019.44;4996250;28;19920;-71
2021/07/16 03:29:31;;;;;;;;;;;;;;;21.01;67.49;100021.13;4995902;28;20005;-72
2021/07/16 03:31:58;;;;;;;;;;;;;;;21.05;67.49;100024.69;4995873;28;19965;-71
2021/07/16 03:34:24;;;;;;;;;;;;;;;21.15;67.42;100027.28;4995044;28;19921;-73
2021/07/16 03:36:51;;;;;;;;;;;;;;;21.08;67.52;100020.97;4995773;28;19917;-72
2021/07/16 03:39:20;;;;;;;;;;;;;;;21.05;67.85;100016.19;4995814;28;19920;-73
2021/07/16 03:41:48;;;;;;;;;;;;;;;21.07;67.82;100022.22;4995708;28;19921;-73
2021/07/16 03:44:13;;;;;;;;;;;;;;;21.13;67.62;100020.44;4995700;28;19960;-72
2021/07/16 03:46:41;;;;;;;;;;;;;;;21.12;67.72;100014.00;4995893;28;19948;-71
2021/07/16 03:49:09;;;;;;;;;;;;;;;21.11;67.76;100020.09;4995614;28;19913;-73
2021/07/16 03:51:40;;;;;;;;;;;;;;;21.13;67.51;100014.78;4995567;28;19968;-71
2021/07/16 03:54:11;;;;;;;;;;;;;;;21.17;67.38;100012.69;4995457;28;20390;-72
2021/07/16 03:56:36;;;;;;;;;;;;;;;21.27;66.98;100010.84;4995718;28;20416;-73
2021/07/16 03:59:05;;;;;;;;;;;;;;;21.36;67.04;100014.69;4995424;28;19914;-72
2021/07/16 04:01:33;;;;;;;;;;;;;;;21.40;66.44;100006.88;4995235;28;19914;-71
2021/07/16 04:04:04;;;;;;;;;;;;;;;21.40;66.75;100008.94;4995821;28;19917;-72
2021/07/16 04:06:31;;;;;;;;;;;;;;;21.48;66.64;100018.84;4995824;28;20264;-72
2021/07/16 04:09:10;;;;;;;;;;;;;;;21.49;66.58;100014.78;4995269;28;19914;-73
2021/07/16 04:11:35;;;;;;;;;;;;;;;21.52;66.56;100010.25;4996455;28;19914;-72
2021/07/16 04:14:01;;;;;;;;;;;;;;;21.57;66.28;100012.56;5015644;28;20040;-73
2021/07/16 04:16:29;;;;;;;;;;;;;;;21.78;65.54;100012.00;4998513;28;20245;-72
2021/07/16 04:18:54;;;;;;;;;;;;;;;22.11;64.48;100009.19;4998751;28;20087;-73
2021/07/16 04:21:22;;;;;;;;;;;;;;;22.68;62.35;100008.34;4998077;28;20427;-70
2021/07/16 04:23:52;;;;;;;;;;;;;;;22.80;61.70;100021.00;4998095;28;19968;-72
2021/07/16 04:26:20;;;;;;;;;;;;;;;22.89;61.06;100018.28;4998541;28;20260;-71
2021/07/16 04:28:46;;;;;;;;;;;;;;;23.07;60.91;100019.81;4997699;28;19963;-73
2021/07/16 04:31:15;;;;;;;;;;;;;;;23.00;60.79;100021.59;4997752;28;19914;-71
2021/07/16 04:33:41;;;;;;;;;;;;;;;23.01;60.75;100022.41;4997449;28;19914;-72
2021/07/16 04:36:09;;;;;;;;;;;;;;;22.89;60.99;100023.97;4998168;28;19921;-71
2021/07/16 04:38:37;;;;;;;;;;;;;;;22.77;61.40;100029.59;4997341;28;20048;-73
2021/07/16 04:41:02;;;;;;;;;;;;;;;22.63;62.00;100025.13;4997986;28;20479;-71
2021/07/16 04:43:30;;;;;;;;;;;;;;;22.55;62.29;100026.59;4997452;28;19996;-73
2021/07/16 04:46:00;;;;;;;;;;;;;;;22.47;62.20;100018.25;4998211;28;20044;-71
2021/07/16 04:48:29;;;;;;;;;;;;;;;22.41;62.70;100031.41;4997884;28;19976;-70
2021/07/16 04:51:00;;;;;;;;;;;;;;;22.42;62.63;100035.81;4998107;28;20261;-73
2021/07/16 04:53:28;;;;;;;;;;;;;;;22.34;62.72;100025.94;4998120;28;19936;-73
2021/07/16 04:55:54;;;;;;;;;;;;;;;22.31;62.51;100032.50;4997492;28;20008;-71
2021/07/16 04:58:25;;;;;;;;;;;;;;;22.43;62.02;100028.13;4997992;28;19949;-71
2021/07/16 05:00:56;;;;;;;;;;;;;;;22.53;62.01;100032.72;4997399;28;19913;-72
2021/07/16 05:03:26;;;;;;;;;;;;;;;22.84;61.24;100024.50;4997963;28;20268;-72
2021/07/16 05:05:54;;;;;;;;;;;;;;;23.11;60.34;100026.16;4997625;28;19913;-70
2021/07/16 05:08:25;;;;;;;;;;;;;;;23.24;58.94;100019.25;4997875;28;19936;-72
2021/07/16 05:10:53;;;;;;;;;;;;;;;23.23;59.34;100017.66;4996930;28;20011;-73
2021/07/16 05:13:21;;;;;;;;;;;;;;;23.26;59.16;100021.63;4993463;28;19933;-72
2021/07/16 05:15:46;;;;;;;;;;;;;;;23.29;58.77;100015.03;4993803;28;19964;-71
2021/07/16 05:18:14;;;;;;;;;;;;;;;23.07;59.42;100008.47;4994284;28;19917;-72
2021/07/16 05:20:42;;;;;;;;;;;;;;;23.32;59.04;100002.75;4993706;28;19914;-72
2021/07/16 05:23:07;;;;;;;;;;;;;;;23.26;59.11;100001.75;4994229;28;20375;-71
2021/07/16 05:25:33;;;;;;;;;;;;;;;22.99;60.65;100013.53;4993668;28;19914;-71
2021/07/16 05:28:01;;;;;;;;;;;;;;;22.98;60.88;100012.75;4993636;28;19921;-71
2021/07/16 05:30:32;;;;;;;;;;;;;;;22.74;62.82;100002.91;4993698;28;19917;-71
2021/07/16 05:32:57;;;;;;;;;;;;;;;23.02;62.09;100011.84;4993093;28;20052;-70
2021/07/16 05:35:23;;;;;;;;;;;;;;;24.25;57.54;100005.31;4993638;28;19964;-72
2021/07/16 05:37:48;;;;;;;;;;;;;;;24.98;55.01;99999.34;4993064;28;20020;-71
2021/07/16 05:40:19;;;;;;;;;;;;;;;25.81;52.83;99998.44;4993482;28;20056;-72
2021/07/16 05:42:44;;;;;;;;;;;;;;;26.54;50.65;99992.00;4993255;28;19924;-72
2021/07/16 05:45:12;;;;;;;;;;;;;;;27.20;48.29;99999.91;4993533;28;19913;-71
2021/07/16 05:47:37;;;;;;;;;;;;;;;27.24;47.60;99999.75;4993787;28;19913;-71
2021/07/16 05:50:08;;;;;;;;;;;;;;;27.48;47.07;99999.78;4993859;28;20257;-71
2021/07/16 05:52:39;;;;;;;;;;;;;;;28.07;45.96;100006.59;4993452;28;20306;-71
2021/07/16 05:55:05;;;;;;;;;;;;;;;28.49;44.89;100008.47;4993091;28;19972;-71
2021/07/16 05:57:36;;;;;;;;;;;;;;;29.13;42.93;100007.84;4992876;28;19918;-73
2021/07/16 06:00:05;;;;;;;;;;;;;;;29.37;42.57;100015.53;4993408;28;20365;-73
2021/07/16 06:02:33;;;;;;;;;;;;;;;29.36;41.84;100011.09;4993685;28;20009;-72
2021/07/16 06:05:02;;;;;;;;;;;;;;;29.78;41.25;100004.16;4993472;28;19914;-73
2021/07/16 06:07:27;;;;;;;;;;;;;;;29.94;41.01;100003.59;4993689;28;20012;-73
2021/07/16 06:09:58;;;;;;;;;;;;;;;29.57;41.42;100009.88;4993114;28;19961;-73
2021/07/16 06:12:29;;;;;;;;;;;;;;;29.42;41.97;100006.22;4993391;28;20366;-72
2021/07/16 06:14:59;;;;;;;;;;;;;;;29.62;41.59;100006.31;4993153;28;19961;-72
2021/07/16 06:17:30;;;;;;;;;;;;;;;29.22;42.11;100007.72;4993073;28;19924;-72
2021/07/16 06:19:58;;;;;;;;;;;;;;;29.04;42.79;100001.44;4993240;28;19965;-73
2021/07/16 06:22:28;;;;;;;;;;;;;;;29.35;42.43;100010.28;4993457;28;19936;-71
2021/07/16 06:24:58;;;;;;;;;;;;;;;29.69;41.89;100011.59;4992812;28;19972;-71
2021/07/16 06:27:29;;;;;;;;;;;;;;;30.19;40.24;100016.44;4993344;28;19913;-72
2021/07/16 06:29:54;;;;;;;;;;;;;;;29.45;42.10;100006.00;4993072;28;19918;-73
2021/07/16 06:32:25;;;;;;;;;;;;;;;29.70;41.49;99995.97;4993013;28;20384;-72
2021/07/16 06:34:53;;;;;;;;;;;;;;;29.97;41.04;99996.84;4992823;28;19917;-72
2021/07/16 06:37:21;;;;;;;;;;;;;;;30.00;40.82;100004.47;4992768;28;19945;-71
2021/07/16 06:39:49;;;;;;;;;;;;;;;29.82;42.11;100002.66;4993061;28;19917;-72
2021/07/16 06:42:20;;;;;;;;;;;;;;;28.97;42.76;100002.63;4993209;28;19917;-72
2021/07/16 06:44:50;;;;;;;;;;;;;;;29.16;41.96;100004.00;4992499;28;19924;-71
2021/07/16 06:47:17;;;;;;;;;;;;;;;29.72;40.36;99996.28;4993161;28;20415;-72
2021/07/16 06:49:46;;;;;;;;;;;;;;;29.24;42.19;99998.63;4992899;28;20008;-72
2021/07/16 06:52:15;;;;;;;;;;;;;;;29.37;41.59;100001.19;4992563;28;19926;-72
2021/07/16 06:54:43;;;;;;;;;;;;;;;29.74;39.67;99996.56;4991683;28;19914;-72
2021/07/16 06:57:08;;;;;;;;;;;;;;;30.84;38.63;99998.91;4993002;28;19956;-71
2021/07/16 06:59:38;;;;;;;;;;;;;;;31.39;36.52;99998.63;4993369;28;19972;-72
2021/07/16 07:02:04;;;;;;;;;;;;;;;32.08;35.87;99998.50;4992370;28;19971;-72
2021/07/16 07:04:34;;;;;;;;;;;;;;;32.12;35.68;99989.59;4993419;28;19913;-73
2021/07/16 07:07:05;;;;;;;;;;;;;;;32.54;34.65;99992.38;4992313;28;19921;-71
2021/07/16 07:09:36;;;;;;;;;;;;;;;31.77;36.32;99985.78;4993372;28;19964;-73
2021/07/16 07:12:04;;;;;;;;;;;;;;;31.73;36.46;99985.22;4995681;28;20368;-72
2021/07/16 07:14:29;;;;;;;;;;;;;;;31.97;36.63;99989.84;4996021;28;19913;-72
2021/07/16 07:16:54;;;;;;;;;;;;;;;31.52;36.78;99989.53;4996270;28;20383;-72
2021/07/16 07:19:22;;;;;;;;;;;;;;;31.78;36.63;99993.09;4996030;28;19918;-73
2021/07/16 07:21:50;;;;;;;;;;;;;;;32.10;35.74;99998.75;4995924;28;20411;-73
2021/07/16 07:24:21;;;;;;;;;;;;;;;31.93;36.06;99995.81;4995853;28;19913;-72
2021/07/16 07:26:51;;;;;;;;;;;;;;;30.88;38.04;99993.72;4996044;28;19914;-72
2021/07/16 07:29:19;;;;;;;;;;;;;;;30.15;39.08;99990.88;4995968;28;20016;-71
2021/07/16 07:31:49;;;;;;;;;;;;;;;29.66;39.77;99989.66;4995857;28;19920;-74
2021/07/16 07:34:19;;;;;;;;;;;;;;;29.37;40.90;99989.72;4996442;28;19921;-73
2021/07/16 07:36:49;;;;;;;;;;;;;;;29.75;40.54;99986.66;4995822;28;20008;-71
2021/07/16 07:39:18;;;;;;;;;;;;;;;30.25;39.35;99971.38;4995809;28;19925;-72
2021/07/16 07:41:46;;;;;;;;;;;;;;;30.53;38.38;99971.72;4995713;28;19941;-72
2021/07/16 07:44:17;;;;;;;;;;;;;;;30.65;38.04;99987.75;4995652;28;19913;-73
2021/07/16 07:46:43;;;;;;;;;;;;;;;29.88;39.86;99974.84;4996206;28;20352;-73
2021/07/16 07:49:14;;;;;;;;;;;;;;;30.94;37.33;99975.25;4995621;28;19914;-73
2021/07/16 07:51:42;;;;;;;;;;;;;;;28.83;41.97;99980.50;4995493;28;19949;-71
2021/07/16 07:54:13;;;;;;;;;;;;;;;27.56;44.69;99976.09;4995332;28;19941;-73
2021/07/16 07:56:41;;;;;;;;;;;;;;;28.21;43.24;99976.44;4994962;28;19914;-72
2021/07/16 07:59:09;;;;;;;;;;;;;;;28.45;43.23;99973.56;4995435;28;19921;-73
2021/07/16 08:01:37;;;;;;;;;;;;;;;28.12;43.32;99974.44;4995249;28;19924;-73
2021/07/16 08:04:05;;;;;;;;;;;;;;;28.15;43.19;99973.47;4995545;28;19913;-72
2021/07/16 08:06:35;;;;;;;;;;;;;;;27.76;43.88;99969.03;4995234;28;19913;-72
2021/07/16 08:09:03;;;;;;;;;;;;;;;27.21;45.66;99975.78;4995177;28;19949;-72
2021/07/16 08:11:30;;;;;;;;;;;;;;;27.25;45.95;99958.50;4995353;28;20423;-73
2021/07/16 08:13:56;;;;;;;;;;;;;;;27.05;46.43;99973.28;4998580;28;19925;-73
2021/07/16 08:16:27;;;;;;;;;;;;;;;26.56;47.84;99969.47;4998239;28;19944;-73
2021/07/16 08:18:53;;;;;;;;;;;;;;;27.45;46.16;99967.28;4998269;28;19920;-72
2021/07/16 08:21:22;;;;;;;;;;;;;;;28.55;42.74;99960.75;4997742;28;19913;-72
2021/07/16 08:23:50;;;;;;;;;;;;;;;29.04;41.61;99972.81;4997933;28;20012;-72
2021/07/16 08:26:21;;;;;;;;;;;;;;;29.07;41.62;99961.13;4997743;28;19917;-72
2021/07/16 08:28:49;;;;;;;;;;;;;;;30.14;39.29;99957.72;4998530;28;19963;-71
2021/07/16 08:31:19;;;;;;;;;;;;;;;29.90;38.85;99957.94;4998077;28;20040;-72
2021/07/16 08:33:47;;;;;;;;;;;;;;;29.44;39.75;99949.19;4997625;28;20376;-73
2021/07/16 08:36:15;;;;;;;;;;;;;;;29.73;38.96;99948.31;4997536;28;19917;-72
2021/07/16 08:38:40;;;;;;;;;;;;;;;30.11;37.67;99943.56;4997795;28;19920;-71
2021/07/16 08:41:08;;;;;;;;;;;;;;;29.59;37.97;99944.22;4997348;28;20296;-72
2021/07/16 08:43:36;;;;;;;;;;;;;;;29.28;38.57;99941.13;4997930;28;20012;-71
2021/07/16 08:46:06;;;;;;;;;;;;;;;29.06;38.65;99928.06;4997340;28;19920;-71
2021/07/16 08:48:32;;;;;;;;;;;;;;;29.09;38.79;99938.53;4997452;28;19977;-70
2021/07/16 08:51:02;;;;;;;;;;;;;;;30.63;36.15;99947.28;4997576;28;19913;-72
2021/07/16 08:53:33;;;;;;;;;;;;;;;31.42;34.71;99933.56;4998034;28;19983;-71
2021/07/16 08:55:59;;;;;;;;;;;;;;;31.13;35.38;99943.28;4997631;28;20280;-72
2021/07/16 08:58:27;;;;;;;;;;;;;;;31.05;36.02;99928.56;4997283;28;19925;-73
2021/07/16 09:00:58;;;;;;;;;;;;;;;30.40;36.68;99925.38;4997775;28;20003;-72
2021/07/16 09:03:29;;;;;;;;;;;;;;;30.33;37.12;99922.97;4997565;28;19953;-71
2021/07/16 09:06:05;;;;;;;;;;;;;;;29.26;39.42;99924.44;5014630;28;19914;-73
2021/07/16 09:08:35;;;;;;;;;;;;;;;28.44;40.70;99926.19;4997797;28;20272;-72
2021/07/16 09:11:01;;;;;;;;;;;;;;;28.62;40.25;99926.00;4997247;28;19945;-71
2021/07/16 09:13:31;;;;;;;;;;;;;;;28.28;40.89;99913.13;5014829;28;19925;-71
2021/07/16 09:16:00;;;;;;;;;;;;;;;28.68;40.65;99926.88;4997075;28;19940;-73
2021/07/16 09:18:29;;;;;;;;;;;;;;;29.53;38.60;99928.22;4997346;28;20423;-74
2021/07/16 09:21:03;;;;;;;;;;;;;;;30.57;36.68;99928.41;4997172;28;20415;-72
2021/07/16 09:23:49;;;;;;;;;;;;;;;30.38;36.64;99917.28;4997743;28;20032;-72
2021/07/16 09:26:16;;;;;;;;;;;;;;;30.25;37.04;99896.78;4996479;28;20418;-72
2021/07/16 09:28:42;;;;;;;;;;;;;;;31.01;35.72;99922.31;4996953;28;20004;-71
2021/07/16 09:31:19;;;;;;;;;;;;;;;31.47;34.56;99929.91;4997192;28;19971;-72
2021/07/16 09:33:56;;;;;;;;;;;;;;;30.76;35.80;99923.91;4996901;28;19993;-71
2021/07/16 09:36:32;;;;;;;;;;;;;;;30.58;36.59;99918.53;5014600;28;19940;-73
2021/07/16 09:39:18;;;;;;;;;;;;;;;30.72;36.49;99921.28;4996809;28;19948;-73
2021/07/16 09:41:51;;;;;;;;;;;;;;;31.68;34.48;99911.22;4995827;28;19917;-72
2021/07/16 09:44:28;;;;;;;;;;;;;;;31.41;35.66;99909.00;5015132;28;19914;-73
2021/07/16 09:47:14;;;;;;;;;;;;;;;31.62;34.41;99901.78;4996673;28;20016;-72
2021/07/16 09:49:45;;;;;;;;;;;;;;;32.32;33.01;99921.13;5014073;28;20392;-71
2021/07/16 09:52:15;;;;;;;;;;;;;;;32.54;32.08;99902.31;4994108;28;20284;-72
2021/07/16 09:55:01;;;;;;;;;;;;;;;32.01;32.95;99904.84;4996030;28;19996;-72
2021/07/16 09:57:36;;;;;;;;;;;;;;;32.83;31.64;99909.69;4988645;28;19913;-71
2021/07/16 10:00:12;;;;;;;;;;;;;;;32.02;34.04;99903.53;4996001;28;19921;-73
2021/07/16 10:02:44;;;;;;;;;;;;;;;30.80;36.53;99900.72;4980413;28;20327;-71
2021/07/16 10:05:13;;;;;;;;;;;;;;;31.37;35.80;99899.81;4996196;28;19960;-71
2021/07/16 10:07:42;;;;;;;;;;;;;;;31.09;36.04;99900.41;4980338;28;19917;-71
2021/07/16 10:10:17;;;;;;;;;;;;;;;31.53;34.92;99904.84;4995923;28;19917;-72
2021/07/16 10:12:43;;;;;;;;;;;;;;;31.24;35.78;99897.38;4992447;28;19918;-74
2021/07/16 10:15:12;;;;;;;;;;;;;;;31.82;34.44;99903.72;4992499;28;19917;-72
2021/07/16 10:17:42;;;;;;;;;;;;;;;31.64;34.24;99901.25;4992495;28;19920;-71
2021/07/16 10:20:10;;;;;;;;;;;;;;;31.76;33.71;99912.31;4992923;28;19948;-73
2021/07/16 10:22:39;;;;;;;;;;;;;;;31.41;33.98;99898.28;4992677;28;19917;-72
2021/07/16 10:25:08;;;;;;;;;;;;;;;31.65;32.85;99900.75;4992812;28;19918;-71
2021/07/16 10:27:36;;;;;;;;;;;;;;;31.60;33.22;99898.63;4994302;28;19913;-73
2021/07/16 10:30:10;;;;;;;;;;;;;;;32.44;32.29;99912.53;4993734;28;20423;-72
2021/07/16 10:32:59;;;;;;;;;;;;;;;32.11;32.83;99922.63;4993161;28;19921;-70
2021/07/16 10:35:36;;;;;;;;;;;;;;;31.45;34.04;99915.28;4993888;28;19922;-71
2021/07/16 10:38:24;;;;;;;;;;;;;;;30.99;35.02;99914.16;4992794;28;19921;-72
2021/07/16 10:40:49;;;;;;;;;;;;;;;31.90;33.52;99909.75;4992721;28;19920;-71
2021/07/16 10:43:27;;;;;;;;;;;;;;;32.45;32.94;99908.34;4994220;28;19917;-73
2021/07/16 10:45:58;;;;;;;;;;;;;;;31.85;34.13;99910.53;4997091;28;19956;-73
2021/07/16 10:48:39;;;;;;;;;;;;;;;32.09;33.62;99916.63;4996825;28;19952;-72
2021/07/16 10:51:04;;;;;;;;;;;;;;;32.05;33.49;99916.09;4997428;28;19920;-71
2021/07/16 10:53:52;;;;;;;;;;;;;;;32.18;33.23;99913.53;4997525;28;19914;-73
2021/07/16 10:56:21;;;;;;;;;;;;;;;32.92;32.05;99918.09;4997068;28;20375;-73
2021/07/16 10:58:52;;;;;;;;;;;;;;;32.72;31.77;99915.44;4996547;28;19952;-72
2021/07/16 11:01:41;;;;;;;;;;;;;;;33.55;31.05;99913.78;4997040;28;19921;-71
2021/07/16 11:04:09;;;;;;;;;;;;;;;32.42;33.21;99926.66;4996530;28;19953;-72
2021/07/16 11:06:49;;;;;;;;;;;;;;;32.88;32.41;99916.75;4996396;28;20012;-72
2021/07/16 11:09:33;;;;;;;;;;;;;;;32.68;32.92;99921.47;4996435;28;19940;-72
2021/07/16 11:12:17;;;;;;;;;;;;;;;32.66;33.37;99917.53;4996208;28;20414;-73
2021/07/16 11:14:45;;;;;;;;;;;;;;;33.22;32.66;99923.28;4997125;28;20230;-72
2021/07/16 11:17:27;;;;;;;;;;;;;;;32.63;33.05;99913.59;4996513;28;20332;-72
2021/07/16 11:20:11;;;;;;;;;;;;;;;32.98;32.80;99918.09;4996531;28;19914;-73
2021/07/16 11:22:55;;;;;;;;;;;;;;;32.64;31.59;99915.16;4996324;28;20432;-71
2021/07/16 11:25:24;;;;;;;;;;;;;;;32.73;32.28;99912.03;4996102;28;19913;-73
2021/07/16 11:27:52;;;;;;;;;;;;;;;32.26;33.75;99919.53;4996771;28;20264;-71
2021/07/16 11:30:17;;;;;;;;;;;;;;;32.42;32.34;99915.16;4995836;28;20016;-73
2021/07/16 11:32:48;;;;;;;;;;;;;;;32.13;34.22;99911.41;4995997;28;19953;-72
2021/07/16 11:35:14;;;;;;;;;;;;;;;32.38;34.49;99908.84;4996242;28;19913;-71
2021/07/16 11:37:45;;;;;;;;;;;;;;;32.18;34.99;99906.97;4995672;28;19921;-71
2021/07/16 11:40:19;;;;;;;;;;;;;;;32.01;34.36;99904.03;4995807;28;19913;-70
2021/07/16 11:42:48;;;;;;;;;;;;;;;31.40;36.81;99913.16;4995653;28;20021;-73
2021/07/16 11:45:25;;;;;;;;;;;;;;;30.61;38.48;99912.53;4996209;28;19917;-71
2021/07/16 11:47:51;;;;;;;;;;;;;;;30.67;39.38;99898.22;4995942;28;19914;-71
2021/07/16 11:50:19;;;;;;;;;;;;;;;29.66;42.08;99905.72;4995873;28;20408;-71
2021/07/16 11:52:53;;;;;;;;;;;;;;;29.92;42.24;99908.66;4994520;28;20373;-72
2021/07/16 11:55:23;;;;;;;;;;;;;;;30.13;41.38;99910.22;4994767;28;19920;-72
2021/07/16 11:57:52;;;;;;;;;;;;;;;30.01;41.14;99902.78;4995574;28;20033;-73
2021/07/16 12:00:28;;;;;;;;;;;;;;;30.25;39.20;99916.88;4996334;28;19960;-74
2021/07/16 12:03:00;;;;;;;;;;;;;;;29.72;40.14;99901.66;4995516;28;19943;-72
2021/07/16 12:05:25;;;;;;;;;;;;;;;29.54;40.38;99904.81;4995547;28;19918;-74
2021/07/16 12:07:51;;;;;;;;;;;;;;;29.40;41.68;99903.56;4995448;28;19914;-72
2021/07/16 12:10:31;;;;;;;;;;;;;;;29.60;40.16;99899.94;4995322;28;19914;-74
2021/07/16 12:13:00;;;;;;;;;;;;;;;29.64;40.11;99900.50;4994809;28;19972;-72
2021/07/16 12:15:40;;;;;;;;;;;;;;;29.18;40.80;99906.88;4995228;28;19924;-71
2021/07/16 12:18:09;;;;;;;;;;;;;;;29.68;39.68;99909.69;4996458;28;19914;-72
2021/07/16 12:20:39;;;;;;;;;;;;;;;29.57;40.64;99891.56;4995189;28;19937;-72
2021/07/16 12:23:16;;;;;;;;;;;;;;;30.06;39.82;99901.25;4995314;28;20369;-72
2021/07/16 12:25:45;;;;;;;;;;;;;;;30.22;39.02;99897.81;4995280;28;19936;-73
2021/07/16 12:28:21;;;;;;;;;;;;;;;30.59;39.09;99903.66;4995045;28;19913;-72
2021/07/16 12:30:52;;;;;;;;;;;;;;;30.67;39.36;99907.63;4995022;28;20400;-73
2021/07/16 12:33:20;;;;;;;;;;;;;;;30.90;39.00;99902.09;4994923;28;19921;-73
2021/07/16 12:35:53;;;;;;;;;;;;;;;30.58;38.27;99896.34;4994953;28;20400;-73
2021/07/16 12:38:21;;;;;;;;;;;;;;;30.44;39.31;99903.00;4995468;28;20284;-72
2021/07/16 12:40:50;;;;;;;;;;;;;;;29.88;40.68;99888.81;4994790;28;19921;-72
2021/07/16 12:43:22;;;;;;;;;;;;;;;29.84;41.83;99890.34;4994698;28;19924;-73
2021/07/16 12:45:57;;;;;;;;;;;;;;;30.26;39.66;99893.44;4994716;28;19920;-72
2021/07/16 12:48:28;;;;;;;;;;;;;;;30.51;38.53;99886.09;4994670;28;19914;-73
2021/07/16 12:51:19;;;;;;;;;;;;;;;30.77;38.84;99893.91;4994562;28;19956;-72
2021/07/16 12:53:52;;;;;;;;;;;;;;;30.41;38.94;99899.03;4986394;28;19917;-74
2021/07/16 12:56:21;;;;;;;;;;;;;;;29.88;40.65;99896.63;4994780;28;19914;-74